Time;durP1;ratioP1;P1;durP2;ratioP2;P2;SDS_P1;SDS_P2;PMS_P1;PMS_P2;Temp;Humidity;BMP_temperature;BMP_pressure;BME280_temperature;BME280_humidity;BME280_pressure;Samples;Min_cycle;Max_cycle;Signal;HPM_P1;HPM_P2
2022/10/24 00:00:20;;;;;;;8.00;3.60;;;;;;;;;;5060531;28;20105;-66
2022/10/24 00:02:46;;;;;;;9.30;4.00;;;;;;;;;;5058094;28;20053;-66
2022/10/24 00:05:13;;;;;;;10.95;3.65;;;;;;;;;;5061430;28;20139;-66
2022/10/24 00:07:39;;;;;;;7.55;3.42;;;;;;;;;;5059558;28;20082;-67
2022/10/24 00:10:06;;;;;;;9.38;3.22;;;;;;;;;;5089241;28;20052;-67
2022/10/24 00:12:33;;;;;;;9.57;3.13;;;;;;;;;;5088784;28;20135;-67
2022/10/24 00:14:59;;;;;;;7.78;3.15;;;;;;;;;;5056069;28;20044;-66
2022/10/24 00:17:25;;;;;;;7.65;2.90;;;;;;;;;;5057555;28;20040;-67
2022/10/24 00:19:53;;;;;;;7.70;2.97;;;;;;;;;;5058711;28;20391;-66
2022/10/24 00:22:19;;;;;;;8.40;2.80;;;;;;;;;;5058624;28;20060;-66
2022/10/24 00:24:45;;;;;;;9.07;2.70;;;;;;;;;;5060290;28;20460;-67
2022/10/24 00:27:12;;;;;;;9.40;2.80;;;;;;;;;;5056883;28;20563;-67
2022/10/24 00:29:38;;;;;;;14.27;2.65;;;;;;;;;;5057736;28;20052;-67
2022/10/24 00:32:04;;;;;;;12.25;3.00;;;;;;;;;;5056506;28;20075;-67
2022/10/24 00:34:30;;;;;;;8.10;2.78;;;;;;;;;;5061193;28;20036;-67
2022/10/24 00:36:56;;;;;;;12.50;2.88;;;;;;;;;;5063383;28;20052;-67
2022/10/24 00:39:23;;;;;;;12.43;3.05;;;;;;;;;;5062423;28;20395;-66
2022/10/24 00:41:49;;;;;;;9.35;2.75;;;;;;;;;;5062213;28;20040;-67
2022/10/24 00:44:20;;;;;;;4.70;2.05;;;;;;;;;;5060076;28;20052;-66
2022/10/24 00:46:48;;;;;;;9.48;2.20;;;;;;;;;;5062083;28;20049;-67
2022/10/24 00:49:15;;;;;;;10.90;3.15;;;;;;;;;;5062587;28;20052;-67
2022/10/24 00:51:42;;;;;;;7.20;2.20;;;;;;;;;;5063958;28;20181;-67
2022/10/24 00:54:09;;;;;;;8.40;2.15;;;;;;;;;;5060628;28;20134;-67
2022/10/24 00:56:38;;;;;;;10.57;2.33;;;;;;;;;;5058841;28;20197;-66
2022/10/24 00:59:06;;;;;;;9.48;2.40;;;;;;;;;;5062928;28;20512;-67
2022/10/24 01:01:33;;;;;;;12.77;2.45;;;;;;;;;;5061708;28;20957;-66
2022/10/24 01:03:59;;;;;;;9.45;1.77;;;;;;;;;;5062313;28;20059;-66
2022/10/24 01:06:44;;;;;;;11.07;2.75;;;;;;;;;;5061376;28;20040;-66
2022/10/24 01:09:26;;;;;;;8.30;2.38;;;;;;;;;;5065395;28;20506;-66
2022/10/24 01:12:17;;;;;;;9.77;3.03;;;;;;;;;;5063153;28;20040;-67
2022/10/24 01:14:48;;;;;;;11.55;2.55;;;;;;;;;;5061740;28;20098;-66
2022/10/24 01:17:17;;;;;;;12.85;2.85;;;;;;;;;;5061399;28;20492;-67
2022/10/24 01:20:01;;;;;;;10.15;2.22;;;;;;;;;;5062590;28;20178;-67
2022/10/24 01:22:32;;;;;;;8.50;2.33;;;;;;;;;;5060461;28;20048;-66
2022/10/24 01:25:05;;;;;;;7.93;2.13;;;;;;;;;;5088636;28;20197;-67
2022/10/24 01:27:44;;;;;;;10.63;2.47;;;;;;;;;;5056802;28;20048;-67
2022/10/24 01:30:12;;;;;;;10.10;2.85;;;;;;;;;;5063114;28;20120;-66
2022/10/24 01:32:49;;;;;;;12.82;2.80;;;;;;;;;;5059855;28;20102;-67
2022/10/24 01:35:23;;;;;;;6.60;2.13;;;;;;;;;;5062050;28;20047;-66
2022/10/24 01:37:55;;;;;;;8.75;2.65;;;;;;;;;;5060554;28;20048;-67
2022/10/24 01:40:25;;;;;;;13.85;2.72;;;;;;;;;;5058302;28;20056;-67
2022/10/24 01:42:53;;;;;;;12.15;2.38;;;;;;;;;;5060025;28;20213;-67
2022/10/24 01:45:23;;;;;;;8.88;2.92;;;;;;;;;;5064035;28;20086;-67
2022/10/24 01:47:52;;;;;;;8.88;2.38;;;;;;;;;;5060827;28;20045;-67
2022/10/24 01:50:20;;;;;;;12.43;2.80;;;;;;;;;;5061965;28;20127;-67
2022/10/24 01:52:47;;;;;;;17.90;2.63;;;;;;;;;;5062910;28;20131;-67
2022/10/24 01:55:13;;;;;;;10.00;2.42;;;;;;;;;;5060429;28;20048;-67
2022/10/24 01:57:39;;;;;;;9.35;2.78;;;;;;;;;;5062099;28;20048;-67
2022/10/24 02:00:07;;;;;;;6.50;2.50;;;;;;;;;;5059408;28;20098;-67
2022/10/24 02:02:39;;;;;;;9.60;2.67;;;;;;;;;;5059670;28;20418;-67
2022/10/24 02:05:09;;;;;;;9.82;3.30;;;;;;;;;;5062203;28;20124;-67
2022/10/24 02:07:36;;;;;;;12.27;3.10;;;;;;;;;;5061208;28;20045;-67
2022/10/24 02:10:07;;;;;;;7.30;3.10;;;;;;;;;;5061025;28;20040;-67
2022/10/24 02:12:34;;;;;;;8.23;2.45;;;;;;;;;;5059618;28;20151;-67
2022/10/24 02:15:09;;;;;;;10.88;3.13;;;;;;;;;;5061044;28;20075;-67
2022/10/24 02:17:36;;;;;;;7.68;2.80;;;;;;;;;;5061269;28;20097;-67
2022/10/24 02:20:02;;;;;;;13.65;2.97;;;;;;;;;;5094048;28;20048;-67
2022/10/24 02:22:33;;;;;;;9.20;2.90;;;;;;;;;;5061520;28;20102;-67
2022/10/24 02:25:03;;;;;;;8.18;3.35;;;;;;;;;;5076679;28;20053;-67
2022/10/24 02:27:33;;;;;;;7.97;3.13;;;;;;;;;;5061036;28;20064;-67
2022/10/24 02:30:00;;;;;;;17.13;3.50;;;;;;;;;;5060153;28;20049;-67
2022/10/24 02:32:29;;;;;;;8.50;3.03;;;;;;;;;;5058912;28;20120;-66
2022/10/24 02:34:56;;;;;;;9.50;3.47;;;;;;;;;;5056158;28;20041;-67
2022/10/24 02:37:23;;;;;;;12.25;3.40;;;;;;;;;;5060749;28;20070;-67
2022/10/24 02:39:49;;;;;;;9.00;2.92;;;;;;;;;;5062827;28;20040;-66
2022/10/24 02:42:16;;;;;;;11.75;3.35;;;;;;;;;;5063169;28;20044;-67
2022/10/24 02:44:45;;;;;;;15.00;3.47;;;;;;;;;;5092391;28;20044;-67
2022/10/24 02:47:12;;;;;;;10.38;3.50;;;;;;;;;;5062598;28;20488;-67
2022/10/24 02:49:39;;;;;;;16.13;3.53;;;;;;;;;;5058826;28;20464;-67
2022/10/24 02:52:06;;;;;;;13.02;3.90;;;;;;;;;;5058587;28;20508;-67
2022/10/24 02:54:32;;;;;;;13.30;3.35;;;;;;;;;;5060224;28;20055;-66
2022/10/24 02:57:00;;;;;;;7.63;3.47;;;;;;;;;;5091571;28;20048;-67
2022/10/24 02:59:26;;;;;;;10.25;3.45;;;;;;;;;;5062180;28;20515;-67
2022/10/24 03:01:52;;;;;;;7.72;2.90;;;;;;;;;;5076464;28;20403;-67
2022/10/24 03:04:18;;;;;;;12.35;3.00;;;;;;;;;;5062388;28;20149;-67
2022/10/24 03:06:44;;;;;;;12.23;3.38;;;;;;;;;;5056666;28;20782;-67
2022/10/24 03:09:10;;;;;;;10.40;2.92;;;;;;;;;;5061370;28;20040;-67
2022/10/24 03:11:37;;;;;;;15.57;3.78;;;;;;;;;;5060452;28;20127;-67
2022/10/24 03:14:03;;;;;;;11.32;2.83;;;;;;;;;;5094384;28;20483;-67
2022/10/24 03:16:29;;;;;;;13.60;3.65;;;;;;;;;;5058533;28;20045;-67
2022/10/24 03:18:56;;;;;;;9.45;2.78;;;;;;;;;;5060029;28;20051;-67
2022/10/24 03:21:22;;;;;;;15.88;3.58;;;;;;;;;;5055157;28;20052;-66
2022/10/24 03:23:49;;;;;;;10.32;2.75;;;;;;;;;;5058060;28;20033;-67
2022/10/24 03:26:15;;;;;;;10.07;2.78;;;;;;;;;;5056772;28;20120;-67
2022/10/24 03:28:41;;;;;;;10.90;2.90;;;;;;;;;;5063446;28;20325;-67
2022/10/24 03:31:08;;;;;;;12.30;2.78;;;;;;;;;;5095394;28;20493;-67
2022/10/24 03:33:34;;;;;;;7.80;2.72;;;;;;;;;;5062165;28;20059;-67
2022/10/24 03:36:00;;;;;;;14.77;2.88;;;;;;;;;;5056458;28;20336;-67
2022/10/24 03:38:26;;;;;;;11.38;2.70;;;;;;;;;;5056064;28;20051;-66
2022/10/24 03:40:53;;;;;;;14.77;2.78;;;;;;;;;;5055245;28;20040;-66
2022/10/24 03:43:19;;;;;;;9.13;2.70;;;;;;;;;;5059056;28;20037;-67
2022/10/24 03:45:45;;;;;;;16.60;3.05;;;;;;;;;;5060140;28;20454;-66
2022/10/24 03:48:11;;;;;;;11.27;2.45;;;;;;;;;;5060368;28;20183;-67
2022/10/24 03:50:37;;;;;;;8.93;2.58;;;;;;;;;;5090232;28;20056;-67
2022/10/24 03:53:04;;;;;;;7.15;2.20;;;;;;;;;;5058330;28;20111;-67
2022/10/24 03:55:30;;;;;;;15.43;3.58;;;;;;;;;;5059800;28;20048;-67
2022/10/24 03:57:56;;;;;;;11.38;2.15;;;;;;;;;;5056596;28;20039;-67
2022/10/24 04:00:22;;;;;;;6.30;2.55;;;;;;;;;;5054422;28;20184;-67
2022/10/24 04:02:50;;;;;;;9.45;2.40;;;;;;;;;;5061202;28;20116;-67
2022/10/24 04:05:17;;;;;;;9.52;2.33;;;;;;;;;;5061267;28;20399;-67
2022/10/24 04:07:43;;;;;;;11.05;2.92;;;;;;;;;;5060592;28;20388;-66
2022/10/24 04:10:09;;;;;;;14.15;2.55;;;;;;;;;;5061120;28;20375;-67
2022/10/24 04:12:35;;;;;;;13.60;2.05;;;;;;;;;;5065317;28;20139;-66
2022/10/24 04:15:01;;;;;;;7.35;2.50;;;;;;;;;;5081201;28;20067;-67
2022/10/24 04:17:27;;;;;;;9.85;2.63;;;;;;;;;;5061949;28;20380;-67
2022/10/24 04:19:54;;;;;;;5.30;2.00;;;;;;;;;;5063532;28;20484;-67
2022/10/24 04:22:20;;;;;;;20.40;3.38;;;;;;;;;;5094851;28;20052;-67
2022/10/24 04:24:46;;;;;;;13.00;2.47;;;;;;;;;;5063773;28;20041;-67
2022/10/24 04:27:12;;;;;;;17.17;3.10;;;;;;;;;;5061896;28;20049;-66
2022/10/24 04:29:38;;;;;;;9.93;2.72;;;;;;;;;;5063038;28;20605;-67
2022/10/24 04:32:04;;;;;;;12.43;2.30;;;;;;;;;;5062976;28;20494;-67
2022/10/24 04:34:34;;;;;;;9.60;2.55;;;;;;;;;;5064326;28;20273;-67
2022/10/24 04:37:00;;;;;;;12.48;2.50;;;;;;;;;;5059934;28;20052;-66
2022/10/24 04:39:27;;;;;;;12.27;2.72;;;;;;;;;;5063150;28;20051;-67
2022/10/24 04:41:53;;;;;;;14.88;3.03;;;;;;;;;;5093073;28;20032;-66
2022/10/24 04:44:19;;;;;;;8.30;2.35;;;;;;;;;;5063402;28;20083;-67
2022/10/24 04:46:45;;;;;;;8.07;2.22;;;;;;;;;;5064771;28;20432;-67
2022/10/24 04:49:11;;;;;;;10.82;1.95;;;;;;;;;;5080969;28;20499;-66
2022/10/24 04:51:37;;;;;;;8.18;2.10;;;;;;;;;;5062020;28;20079;-67
2022/10/24 04:54:04;;;;;;;7.18;2.03;;;;;;;;;;5061470;28;20128;-67
2022/10/24 04:56:30;;;;;;;12.98;2.60;;;;;;;;;;5058360;28;20041;-69
2022/10/24 04:58:56;;;;;;;8.55;2.28;;;;;;;;;;5091780;28;20063;-67
2022/10/24 05:01:22;;;;;;;8.38;2.22;;;;;;;;;;5065065;28;20136;-67
2022/10/24 05:03:48;;;;;;;9.85;2.13;;;;;;;;;;5062800;28;20048;-67
2022/10/24 05:06:14;;;;;;;7.85;2.08;;;;;;;;;;5060632;28;20435;-67
2022/10/24 05:08:40;;;;;;;7.13;2.33;;;;;;;;;;5063955;28;20032;-67
2022/10/24 05:11:10;;;;;;;12.82;2.58;;;;;;;;;;5092249;28;20162;-67
2022/10/24 05:13:36;;;;;;;6.25;1.73;;;;;;;;;;5059717;28;20059;-67
2022/10/24 05:16:02;;;;;;;17.67;2.22;;;;;;;;;;5095175;28;20067;-67
2022/10/24 05:18:29;;;;;;;12.25;2.45;;;;;;;;;;5061145;28;20072;-66
2022/10/24 05:20:56;;;;;;;7.15;1.90;;;;;;;;;;5060756;28;20105;-66
2022/10/24 05:23:22;;;;;;;11.48;2.30;;;;;;;;;;5063836;28;20098;-66
2022/10/24 05:25:48;;;;;;;11.32;2.22;;;;;;;;;;5059980;28;20063;-66
2022/10/24 05:28:14;;;;;;;9.43;2.55;;;;;;;;;;5058887;28;20373;-66
2022/10/24 05:30:42;;;;;;;7.53;2.13;;;;;;;;;;5063064;28;20453;-67
2022/10/24 05:33:08;;;;;;;6.18;1.83;;;;;;;;;;5060006;28;20386;-66
2022/10/24 05:35:35;;;;;;;8.32;1.90;;;;;;;;;;5059302;28;20594;-67
2022/10/24 05:38:01;;;;;;;14.02;2.72;;;;;;;;;;5060048;28;20037;-66
2022/10/24 05:40:27;;;;;;;9.90;1.95;;;;;;;;;;5056726;28;20048;-67
2022/10/24 05:42:53;;;;;;;11.65;2.50;;;;;;;;;;5062441;28;20040;-66
2022/10/24 05:45:20;;;;;;;9.18;2.13;;;;;;;;;;5056274;28;20052;-67
2022/10/24 05:47:46;;;;;;;14.50;2.22;;;;;;;;;;5064534;28;20037;-67
2022/10/24 05:50:12;;;;;;;9.93;1.75;;;;;;;;;;5061090;28;20076;-66
2022/10/24 05:52:41;;;;;;;9.27;1.85;;;;;;;;;;5055771;28;20060;-66
2022/10/24 05:55:07;;;;;;;12.82;2.00;;;;;;;;;;5056126;28;20131;-67
2022/10/24 05:57:34;;;;;;;11.10;1.92;;;;;;;;;;5057622;28;20155;-67
2022/10/24 06:00:01;;;;;;;14.27;2.08;;;;;;;;;;5055389;28;20044;-67
2022/10/24 06:02:27;;;;;;;6.68;2.20;;;;;;;;;;5058145;28;20063;-67
2022/10/24 06:04:54;;;;;;;13.40;1.90;;;;;;;;;;5059280;28;21771;-67
2022/10/24 06:07:21;;;;;;;12.25;2.15;;;;;;;;;;5064862;28;20399;-68
2022/10/24 06:09:47;;;;;;;10.48;1.73;;;;;;;;;;5061996;28;20106;-69
2022/10/24 06:12:13;;;;;;;10.13;1.95;;;;;;;;;;5064528;28;20545;-67
2022/10/24 06:14:40;;;;;;;7.40;1.67;;;;;;;;;;5059596;28;20044;-66
2022/10/24 06:17:08;;;;;;;11.90;2.22;;;;;;;;;;5058400;28;20045;-67
2022/10/24 06:19:35;;;;;;;11.30;2.10;;;;;;;;;;5096367;28;20078;-67
2022/10/24 06:22:01;;;;;;;9.13;1.73;;;;;;;;;;5063874;28;20499;-67
2022/10/24 06:24:27;;;;;;;11.75;2.00;;;;;;;;;;5064834;28;20044;-67
2022/10/24 06:26:54;;;;;;;8.68;1.67;;;;;;;;;;5063856;28;20036;-67
2022/10/24 06:29:20;;;;;;;11.77;2.25;;;;;;;;;;5061306;28;20044;-67
2022/10/24 06:31:46;;;;;;;14.30;2.30;;;;;;;;;;5063475;28;20043;-67
2022/10/24 06:34:12;;;;;;;15.77;2.10;;;;;;;;;;5059416;28;20059;-67
2022/10/24 06:36:38;;;;;;;11.43;1.75;;;;;;;;;;5062415;28;20040;-66
2022/10/24 06:39:04;;;;;;;13.98;2.08;;;;;;;;;;5061653;28;20548;-66
2022/10/24 06:41:30;;;;;;;11.85;2.20;;;;;;;;;;5063718;28;20045;-67
2022/10/24 06:43:57;;;;;;;14.55;1.98;;;;;;;;;;5059713;28;20036;-67
2022/10/24 06:46:23;;;;;;;11.43;1.88;;;;;;;;;;5057658;28;20127;-67
2022/10/24 06:48:52;;;;;;;12.02;1.90;;;;;;;;;;5059636;28;20040;-67
2022/10/24 06:51:19;;;;;;;9.68;2.08;;;;;;;;;;5056548;28;20534;-67
2022/10/24 06:53:45;;;;;;;13.68;1.60;;;;;;;;;;5049181;28;20083;-67
2022/10/24 06:56:13;;;;;;;9.50;1.67;;;;;;;;;;5035855;28;20045;-67
2022/10/24 06:58:40;;;;;;;9.23;1.80;;;;;;;;;;5039939;28;20455;-67
2022/10/24 07:01:08;;;;;;;8.65;2.15;;;;;;;;;;5038321;28;20063;-67
2022/10/24 07:03:34;;;;;;;12.65;2.65;;;;;;;;;;5054865;28;20100;-67
2022/10/24 07:06:05;;;;;;;6.25;1.67;;;;;;;;;;5039281;28;20045;-67
2022/10/24 07:08:31;;;;;;;8.88;1.85;;;;;;;;;;5033604;28;20033;-67
2022/10/24 07:10:57;;;;;;;9.68;1.88;;;;;;;;;;5034045;28;20490;-67
2022/10/24 07:13:23;;;;;;;10.88;2.05;;;;;;;;;;5037326;28;20048;-67
2022/10/24 07:15:53;;;;;;;9.48;1.67;;;;;;;;;;5037019;28;20080;-66
2022/10/24 07:18:19;;;;;;;9.10;2.00;;;;;;;;;;5037647;28;20072;-67
2022/10/24 07:20:46;;;;;;;10.38;1.38;;;;;;;;;;5039094;28;20047;-66
2022/10/24 07:23:12;;;;;;;6.68;1.63;;;;;;;;;;5038814;28;20040;-67
2022/10/24 07:25:39;;;;;;;6.70;1.48;;;;;;;;;;5042236;28;20068;-66
2022/10/24 07:28:06;;;;;;;10.18;1.90;;;;;;;;;;5041411;28;20453;-67
2022/10/24 07:30:32;;;;;;;11.68;1.65;;;;;;;;;;5041672;28;20150;-67
2022/10/24 07:32:58;;;;;;;11.63;1.63;;;;;;;;;;5034883;28;20045;-67
2022/10/24 07:35:25;;;;;;;7.60;1.58;;;;;;;;;;5073236;28;20051;-67
2022/10/24 07:37:52;;;;;;;13.00;1.58;;;;;;;;;;5035434;28;21843;-67
2022/10/24 07:40:18;;;;;;;10.30;1.75;;;;;;;;;;5034093;28;20063;-67
2022/10/24 07:42:45;;;;;;;9.60;1.55;;;;;;;;;;5043969;28;20041;-67
2022/10/24 07:45:11;;;;;;;8.55;1.45;;;;;;;;;;5044106;28;20049;-67
2022/10/24 07:47:37;;;;;;;6.82;1.33;;;;;;;;;;5059228;28;20060;-67
2022/10/24 07:50:04;;;;;;;8.27;1.70;;;;;;;;;;5041202;28;20097;-67
2022/10/24 07:52:30;;;;;;;8.85;1.50;;;;;;;;;;5041282;28;20060;-67
2022/10/24 07:54:57;;;;;;;9.70;1.50;;;;;;;;;;5038734;28;20045;-66
2022/10/24 07:57:23;;;;;;;7.93;1.80;;;;;;;;;;5042846;28;20412;-66
2022/10/24 07:59:49;;;;;;;10.43;1.90;;;;;;;;;;5041620;28;20102;-67
2022/10/24 08:02:16;;;;;;;11.40;1.75;;;;;;;;;;5068031;28;20044;-68
2022/10/24 08:04:42;;;;;;;14.52;2.47;;;;;;;;;;5042167;28;20092;-67
2022/10/24 08:07:12;;;;;;;10.50;2.78;;;;;;;;;;5042331;28;20119;-67
2022/10/24 08:09:40;;;;;;;8.90;1.67;;;;;;;;;;5043054;28;20060;-68
2022/10/24 08:12:06;;;;;;;10.40;1.60;;;;;;;;;;5046531;28;20033;-67
2022/10/24 08:14:33;;;;;;;7.95;1.40;;;;;;;;;;5035636;28;20041;-67
2022/10/24 08:16:59;;;;;;;9.88;1.40;;;;;;;;;;5038451;28;20063;-67
2022/10/24 08:19:25;;;;;;;9.57;1.80;;;;;;;;;;5039206;28;20153;-67
2022/10/24 08:21:52;;;;;;;15.05;2.67;;;;;;;;;;5040605;28;20160;-68
2022/10/24 08:24:18;;;;;;;12.50;1.73;;;;;;;;;;5042007;28;20045;-67
2022/10/24 08:26:44;;;;;;;8.50;1.85;;;;;;;;;;5070573;28;20052;-68
2022/10/24 08:29:13;;;;;;;14.00;2.70;;;;;;;;;;5037984;28;20057;-67
2022/10/24 08:31:39;;;;;;;11.05;2.47;;;;;;;;;;5035905;28;20040;-68
2022/10/24 08:34:05;;;;;;;11.48;2.08;;;;;;;;;;5041676;28;20140;-67
2022/10/24 08:36:33;;;;;;;10.13;1.52;;;;;;;;;;5039569;28;20834;-67
2022/10/24 08:38:59;;;;;;;9.88;1.60;;;;;;;;;;5045779;28;20049;-67
2022/10/24 08:41:31;;;;;;;11.43;1.38;;;;;;;;;;5075133;28;20124;-67
2022/10/24 08:43:59;;;;;;;7.80;1.48;;;;;;;;;;5041275;28;20522;-68
2022/10/24 08:46:39;;;;;;;13.13;2.03;;;;;;;;;;5042850;28;20492;-68
2022/10/24 08:49:14;;;;;;;10.38;1.80;;;;;;;;;;5036552;28;20127;-67
2022/10/24 08:51:56;;;;;;;7.30;1.50;;;;;;;;;;5071684;28;20052;-67
2022/10/24 08:54:25;;;;;;;8.95;1.77;;;;;;;;;;5038905;28;20053;-67
2022/10/24 08:56:54;;;;;;;14.73;2.60;;;;;;;;;;5038616;28;20037;-67
2022/10/24 08:59:20;;;;;;;16.02;1.70;;;;;;;;;;5039259;28;20092;-67
2022/10/24 09:01:50;;;;;;;12.00;2.28;;;;;;;;;;5055320;28;20053;-67
2022/10/24 09:04:18;;;;;;;10.52;1.95;;;;;;;;;;5071242;28;20056;-67
2022/10/24 09:06:45;;;;;;;10.18;1.90;;;;;;;;;;5039896;28;20056;-67
2022/10/24 09:09:17;;;;;;;5.85;1.55;;;;;;;;;;5041225;28;20052;-67
2022/10/24 09:11:43;;;;;;;10.35;1.85;;;;;;;;;;5039827;28;20068;-68
2022/10/24 09:14:13;;;;;;;12.35;1.50;;;;;;;;;;5069738;28;20748;-69
2022/10/24 09:16:40;;;;;;;8.10;1.75;;;;;;;;;;5040211;28;20049;-67
2022/10/24 09:19:10;;;;;;;6.63;1.40;;;;;;;;;;5069981;28;20045;-67
2022/10/24 09:21:37;;;;;;;10.40;1.88;;;;;;;;;;5039476;28;20055;-67
2022/10/24 09:24:03;;;;;;;12.70;2.03;;;;;;;;;;5037946;28;20091;-66
2022/10/24 09:26:31;;;;;;;11.05;1.70;;;;;;;;;;5041874;28;20045;-66
2022/10/24 09:28:57;;;;;;;9.30;1.88;;;;;;;;;;5039758;28;20055;-71
2022/10/24 09:31:25;;;;;;;7.20;1.17;;;;;;;;;;5069368;28;20122;-75
2022/10/24 09:33:52;;;;;;;9.32;2.20;;;;;;;;;;5044965;28;20047;-68
2022/10/24 09:36:20;;;;;;;14.35;2.40;;;;;;;;;;5036856;28;20152;-68
2022/10/24 09:38:47;;;;;;;8.50;1.88;;;;;;;;;;5039621;28;20398;-68
2022/10/24 09:41:16;;;;;;;10.75;2.08;;;;;;;;;;5038998;28;20480;-68
2022/10/24 09:43:44;;;;;;;10.23;1.48;;;;;;;;;;5075120;28;20048;-68
2022/10/24 09:46:12;;;;;;;11.13;2.00;;;;;;;;;;5043224;28;20068;-68
2022/10/24 09:48:49;;;;;;;11.07;1.73;;;;;;;;;;5072264;28;20555;-68
2022/10/24 09:51:18;;;;;;;13.10;2.30;;;;;;;;;;5042365;28;20064;-68
2022/10/24 09:53:58;;;;;;;8.45;1.77;;;;;;;;;;5042853;28;20045;-68
2022/10/24 09:56:31;;;;;;;11.00;1.80;;;;;;;;;;5034821;28;20045;-68
2022/10/24 09:59:12;;;;;;;9.68;1.70;;;;;;;;;;5040060;28;20492;-68
2022/10/24 10:01:40;;;;;;;14.10;2.35;;;;;;;;;;5040848;28;20408;-68
2022/10/24 10:04:06;;;;;;;11.18;2.15;;;;;;;;;;5071409;28;20076;-68
2022/10/24 10:06:33;;;;;;;12.85;2.50;;;;;;;;;;5075030;28;20051;-66
2022/10/24 10:09:00;;;;;;;17.98;1.70;;;;;;;;;;5074152;28;20497;-68
2022/10/24 10:11:32;;;;;;;11.23;2.15;;;;;;;;;;5069774;28;20507;-68
2022/10/24 10:14:00;;;;;;;14.50;2.08;;;;;;;;;;5071856;28;20059;-68
2022/10/24 10:16:28;;;;;;;11.85;2.25;;;;;;;;;;5072128;28;20037;-70
2022/10/24 10:19:04;;;;;;;13.20;2.08;;;;;;;;;;5039571;28;20886;-75
2022/10/24 10:21:50;;;;;;;13.50;2.42;;;;;;;;;;5070488;28;20110;-68
2022/10/24 10:24:27;;;;;;;12.05;1.80;;;;;;;;;;5038991;28;20068;-68
2022/10/24 10:26:53;;;;;;;9.48;1.90;;;;;;;;;;5042755;28;20037;-69
2022/10/24 10:29:22;;;;;;;13.10;2.55;;;;;;;;;;5069900;28;20054;-68
2022/10/24 10:31:53;;;;;;;14.20;2.53;;;;;;;;;;5073537;28;20387;-68
2022/10/24 10:34:22;;;;;;;13.50;2.45;;;;;;;;;;5040349;28;20059;-67
2022/10/24 10:36:53;;;;;;;13.75;3.05;;;;;;;;;;5037019;28;20059;-67
2022/10/24 10:39:28;;;;;;;13.77;2.72;;;;;;;;;;5070640;28;20128;-67
2022/10/24 10:41:55;;;;;;;15.18;3.28;;;;;;;;;;5044352;28;20476;-67
2022/10/24 10:44:34;;;;;;;16.63;2.80;;;;;;;;;;5042216;28;20080;-68
2022/10/24 10:47:09;;;;;;;15.60;3.60;;;;;;;;;;5072598;28;20053;-69
2022/10/24 10:49:38;;;;;;;15.07;2.70;;;;;;;;;;5037555;28;20041;-68
2022/10/24 10:52:11;;;;;;;18.25;3.20;;;;;;;;;;5042570;28;20443;-68
2022/10/24 10:54:44;;;;;;;11.82;2.78;;;;;;;;;;5043563;28;20408;-68
2022/10/24 10:57:13;;;;;;;14.68;2.70;;;;;;;;;;5037993;28;20041;-68
2022/10/24 10:59:48;;;;;;;18.75;2.70;;;;;;;;;;5039771;28;20056;-68
2022/10/24 11:02:21;;;;;;;15.77;3.10;;;;;;;;;;5066874;28;20041;-67
2022/10/24 11:05:02;;;;;;;17.35;3.30;;;;;;;;;;5067246;28;20053;-67
2022/10/24 11:07:43;;;;;;;10.95;2.10;;;;;;;;;;5039851;28;20117;-67
2022/10/24 11:10:12;;;;;;;14.32;2.58;;;;;;;;;;5037972;28;20064;-67
2022/10/24 11:12:39;;;;;;;14.48;2.38;;;;;;;;;;5039334;28;20076;-67
2022/10/24 11:15:25;;;;;;;20.48;3.10;;;;;;;;;;5043103;28;20052;-68
2022/10/24 11:18:04;;;;;;;16.42;2.90;;;;;;;;;;5035601;28;20037;-68
2022/10/24 11:20:34;;;;;;;13.02;3.03;;;;;;;;;;5037154;28;20045;-68
2022/10/24 11:23:01;;;;;;;11.02;2.50;;;;;;;;;;5037982;28;20037;-68
2022/10/24 11:25:34;;;;;;;11.10;2.58;;;;;;;;;;5067614;28;20378;-68
2022/10/24 11:28:14;;;;;;;15.73;2.50;;;;;;;;;;5033993;28;20041;-68
2022/10/24 11:30:53;;;;;;;18.30;3.85;;;;;;;;;;5037797;28;20044;-65
2022/10/24 11:33:22;;;;;;;16.70;3.42;;;;;;;;;;5037591;28;20048;-66
2022/10/24 11:36:06;;;;;;;18.92;2.53;;;;;;;;;;5036777;28;20040;-66
2022/10/24 11:38:34;;;;;;;15.32;2.92;;;;;;;;;;5033197;28;20053;-66
2022/10/24 11:41:19;;;;;;;14.30;2.95;;;;;;;;;;5034402;28;20048;-66
2022/10/24 11:43:45;;;;;;;17.60;3.10;;;;;;;;;;5037538;28;20127;-66
2022/10/24 11:46:19;;;;;;;19.00;3.03;;;;;;;;;;5041047;28;20064;-66
2022/10/24 11:48:49;;;;;;;15.00;2.15;;;;;;;;;;5054184;28;20053;-66
2022/10/24 11:51:21;;;;;;;11.77;2.08;;;;;;;;;;5038342;28;20161;-66
2022/10/24 11:53:51;;;;;;;14.02;3.08;;;;;;;;;;5040720;28;20059;-66
2022/10/24 11:56:22;;;;;;;12.68;2.72;;;;;;;;;;5070583;28;20041;-66
2022/10/24 11:58:49;;;;;;;11.00;2.35;;;;;;;;;;5040877;28;20554;-65
2022/10/24 12:01:24;;;;;;;12.45;2.33;;;;;;;;;;5037401;28;20056;-66
2022/10/24 12:03:53;;;;;;;11.43;3.33;;;;;;;;;;5035143;28;20079;-66
2022/10/24 12:06:26;;;;;;;14.40;3.35;;;;;;;;;;5041760;28;20045;-66
2022/10/24 12:09:04;;;;;;;17.48;2.67;;;;;;;;;;5043051;28;20087;-66
2022/10/24 12:11:37;;;;;;;16.88;2.92;;;;;;;;;;5067483;28;20471;-66
2022/10/24 12:14:03;;;;;;;;;;;;;;;;;;5039554;28;20072;-66
2022/10/24 12:16:30;;;;;;;16.20;3.58;;;;;;;;;;5022538;28;19924;-66
2022/10/24 12:18:59;;;;;;;17.75;3.58;;;;;;;;;;5039925;28;20045;-66
2022/10/24 12:21:26;;;;;;;15.65;2.95;;;;;;;;;;5034366;28;20044;-66
2022/10/24 12:23:54;;;;;;;17.50;3.28;;;;;;;;;;5039161;28;20048;-67
2022/10/24 12:26:24;;;;;;;20.02;2.97;;;;;;;;;;5060943;28;20045;-66
2022/10/24 12:28:55;;;;;;;12.82;2.50;;;;;;;;;;5040075;28;20057;-66
2022/10/24 12:31:23;;;;;;;10.77;2.42;;;;;;;;;;5071196;28;20050;-66
2022/10/24 12:34:08;;;;;;;12.13;2.63;;;;;;;;;;5074293;28;20041;-67
2022/10/24 12:36:52;;;;;;;11.88;2.90;;;;;;;;;;5074790;28;20041;-66
2022/10/24 12:39:29;;;;;;;15.55;2.45;;;;;;;;;;5040145;28;20049;-66
2022/10/24 12:41:57;;;;;;;13.13;2.10;;;;;;;;;;5042667;28;20049;-66
2022/10/24 12:44:24;;;;;;;14.23;2.25;;;;;;;;;;5042154;28;20492;-66
2022/10/24 12:46:51;;;;;;;14.55;2.17;;;;;;;;;;5072300;28;20150;-66
2022/10/24 12:49:25;;;;;;;14.73;2.03;;;;;;;;;;5079590;28;20128;-66
2022/10/24 12:51:51;;;;;;;20.17;3.00;;;;;;;;;;5044568;28;20597;-66
2022/10/24 12:54:18;;;;;;;12.43;2.05;;;;;;;;;;5075129;28;20053;-66
2022/10/24 12:56:51;;;;;;;8.90;1.85;;;;;;;;;;5043857;28;20048;-66
2022/10/24 12:59:19;;;;;;;17.27;1.90;;;;;;;;;;5048377;28;20131;-66
2022/10/24 13:01:46;;;;;;;12.43;2.25;;;;;;;;;;5047624;28;20047;-66
2022/10/24 13:04:13;;;;;;;12.40;2.22;;;;;;;;;;5046696;28;20051;-66
2022/10/24 13:06:52;;;;;;;13.15;2.40;;;;;;;;;;5046105;28;20049;-66
2022/10/24 13:09:33;;;;;;;8.18;1.55;;;;;;;;;;5058560;28;20083;-66
2022/10/24 13:12:05;;;;;;;10.02;2.17;;;;;;;;;;5078392;28;20483;-65
2022/10/24 13:14:37;;;;;;;13.80;2.10;;;;;;;;;;5043123;28;20543;-66
2022/10/24 13:17:06;;;;;;;13.52;2.15;;;;;;;;;;5077193;28;20033;-66
2022/10/24 13:19:32;;;;;;;11.05;2.28;;;;;;;;;;5079442;28;20052;-66
2022/10/24 13:21:59;;;;;;;17.90;2.53;;;;;;;;;;5044638;28;20045;-66
2022/10/24 13:24:26;;;;;;;10.95;1.95;;;;;;;;;;5046573;28;20090;-66
2022/10/24 13:26:54;;;;;;;11.65;1.65;;;;;;;;;;5039741;28;20119;-66
2022/10/24 13:29:20;;;;;;;13.65;1.95;;;;;;;;;;5075432;28;20123;-66
2022/10/24 13:31:48;;;;;;;9.93;1.63;;;;;;;;;;5043885;28;20079;-66
2022/10/24 13:34:14;;;;;;;10.07;1.83;;;;;;;;;;5044440;28;20068;-67
2022/10/24 13:36:42;;;;;;;16.48;1.48;;;;;;;;;;5037577;28;20048;-65
2022/10/24 13:39:11;;;;;;;9.23;1.98;;;;;;;;;;5038758;28;20143;-66
2022/10/24 13:41:40;;;;;;;14.88;2.28;;;;;;;;;;5041691;28;20056;-66
2022/10/24 13:44:18;;;;;;;14.75;2.30;;;;;;;;;;5047491;28;21515;-66
2022/10/24 13:46:48;;;;;;;13.52;2.10;;;;;;;;;;5049162;28;20127;-66
2022/10/24 13:49:18;;;;;;;14.13;2.17;;;;;;;;;;5047841;28;20044;-66
2022/10/24 13:51:48;;;;;;;10.55;2.20;;;;;;;;;;5045550;28;20404;-66
2022/10/24 13:54:20;;;;;;;12.93;2.55;;;;;;;;;;5047751;28;20056;-66
2022/10/24 13:56:46;;;;;;;12.80;2.35;;;;;;;;;;5046282;28;20116;-66
2022/10/24 13:59:27;;;;;;;9.43;1.52;;;;;;;;;;5047415;28;20144;-66
2022/10/24 14:01:53;;;;;;;12.65;1.80;;;;;;;;;;5047224;28;20053;-66
2022/10/24 14:04:19;;;;;;;12.15;2.53;;;;;;;;;;5044791;28;20143;-66
2022/10/24 14:06:45;;;;;;;13.90;2.17;;;;;;;;;;5046742;28;20083;-66
2022/10/24 14:09:12;;;;;;;13.63;1.83;;;;;;;;;;5045494;28;20424;-66
2022/10/24 14:11:40;;;;;;;18.45;2.60;;;;;;;;;;5044780;28;20048;-66
2022/10/24 14:14:08;;;;;;;17.02;2.78;;;;;;;;;;5045554;28;20051;-66
2022/10/24 14:16:34;;;;;;;10.85;2.00;;;;;;;;;;5045879;28;20045;-66
2022/10/24 14:19:21;;;;;;;13.00;1.90;;;;;;;;;;5046365;28;20448;-66
2022/10/24 14:21:48;;;;;;;12.43;1.83;;;;;;;;;;5045923;28;20067;-66
2022/10/24 14:24:15;;;;;;;13.30;2.88;;;;;;;;;;5047830;28;20068;-66
2022/10/24 14:26:44;;;;;;;13.20;2.22;;;;;;;;;;5046449;28;20438;-66
2022/10/24 14:29:21;;;;;;;18.42;2.53;;;;;;;;;;5046585;28;20966;-66
2022/10/24 14:31:53;;;;;;;16.40;3.15;;;;;;;;;;5044953;28;20049;-66
2022/10/24 14:34:20;;;;;;;16.08;2.88;;;;;;;;;;5039250;28;20044;-65
2022/10/24 14:36:48;;;;;;;15.50;2.05;;;;;;;;;;5074929;28;20460;-66
2022/10/24 14:39:22;;;;;;;13.73;2.03;;;;;;;;;;5038788;28;20064;-65
2022/10/24 14:41:49;;;;;;;16.42;2.20;;;;;;;;;;5040599;28;20127;-66
2022/10/24 14:44:16;;;;;;;12.85;2.13;;;;;;;;;;5041421;28;20041;-66